sensor_id;sensor_type;location;lat;lon;timestamp;temperature;humidity
80577;DHT22;69937;52.420;10.538;2023-12-20T00:00:54;6.70;86.20
80577;DHT22;69937;52.420;10.538;2023-12-20T00:05:54;6.70;86.00
80577;DHT22;69937;52.420;10.538;2023-12-20T00:10:55;6.60;85.30
80577;DHT22;69937;52.420;10.538;2023-12-20T00:15:56;6.60;84.70
80577;DHT22;69937;52.420;10.538;2023-12-20T00:20:57;6.60;83.00
80577;DHT22;69937;52.420;10.538;2023-12-20T00:25:57;6.60;82.70
80577;DHT22;69937;52.420;10.538;2023-12-20T00:30:58;6.50;83.00
80577;DHT22;69937;52.420;10.538;2023-12-20T00:35:58;6.50;82.20
80577;DHT22;69937;52.420;10.538;2023-12-20T00:40:59;6.40;81.80
80577;DHT22;69937;52.420;10.538;2023-12-20T00:45:59;6.40;81.10
80577;DHT22;69937;52.420;10.538;2023-12-20T00:51:00;6.30;81.40
80577;DHT22;69937;52.420;10.538;2023-12-20T00:56:01;6.20;81.50
80577;DHT22;69937;52.420;10.538;2023-12-20T01:01:01;6.10;81.60
80577;DHT22;69937;52.420;10.538;2023-12-20T01:06:02;6.00;82.20
80577;DHT22;69937;52.420;10.538;2023-12-20T01:11:05;6.00;82.20
80577;DHT22;69937;52.420;10.538;2023-12-20T01:16:06;5.90;82.10
80577;DHT22;69937;52.420;10.538;2023-12-20T01:21:06;5.90;81.70
80577;DHT22;69937;52.420;10.538;2023-12-20T01:26:07;5.80;81.70
80577;DHT22;69937;52.420;10.538;2023-12-20T01:31:08;5.70;81.80
80577;DHT22;69937;52.420;10.538;2023-12-20T01:36:09;5.70;81.70
80577;DHT22;69937;52.420;10.538;2023-12-20T01:41:09;5.70;81.70
80577;DHT22;69937;52.420;10.538;2023-12-20T01:46:10;5.60;81.90
80577;DHT22;69937;52.420;10.538;2023-12-20T01:51:12;5.50;82.00
80577;DHT22;69937;52.420;10.538;2023-12-20T01:56:13;5.50;82.10
80577;DHT22;69937;52.420;10.538;2023-12-20T02:01:15;5.50;82.20
80577;DHT22;69937;52.420;10.538;2023-12-20T02:06:16;5.50;82.50
80577;DHT22;69937;52.420;10.538;2023-12-20T02:11:18;5.40;82.80
80577;DHT22;69937;52.420;10.538;2023-12-20T02:16:19;5.40;83.00
80577;DHT22;69937;52.420;10.538;2023-12-20T02:21:25;5.50;83.00
80577;DHT22;69937;52.420;10.538;2023-12-20T02:26:26;5.50;82.90
80577;DHT22;69937;52.420;10.538;2023-12-20T02:31:31;5.50;82.10
80577;DHT22;69937;52.420;10.538;2023-12-20T02:36:32;5.50;81.90
80577;DHT22;69937;52.420;10.538;2023-12-20T02:41:33;5.30;81.70
80577;DHT22;69937;52.420;10.538;2023-12-20T02:46:34;5.30;81.60
80577;DHT22;69937;52.420;10.538;2023-12-20T02:51:34;5.20;81.90
80577;DHT22;69937;52.420;10.538;2023-12-20T02:56:35;5.10;82.20
80577;DHT22;69937;52.420;10.538;2023-12-20T03:01:41;5.00;82.30
80577;DHT22;69937;52.420;10.538;2023-12-20T03:06:42;5.00;82.40
80577;DHT22;69937;52.420;10.538;2023-12-20T03:11:43;4.90;82.50
80577;DHT22;69937;52.420;10.538;2023-12-20T03:16:53;4.90;82.40
80577;DHT22;69937;52.420;10.538;2023-12-20T03:21:53;4.90;82.30
80577;DHT22;69937;52.420;10.538;2023-12-20T03:26:54;4.90;82.10
80577;DHT22;69937;52.420;10.538;2023-12-20T03:31:54;4.90;81.90
80577;DHT22;69937;52.420;10.538;2023-12-20T03:36:55;4.90;81.90
80577;DHT22;69937;52.420;10.538;2023-12-20T03:41:55;4.90;82.00
80577;DHT22;69937;52.420;10.538;2023-12-20T03:46:56;4.90;81.80
80577;DHT22;69937;52.420;10.538;2023-12-20T03:51:57;4.80;81.90
80577;DHT22;69937;52.420;10.538;2023-12-20T03:56:57;4.70;81.90
80577;DHT22;69937;52.420;10.538;2023-12-20T04:02:01;4.70;82.10
80577;DHT22;69937;52.420;10.538;2023-12-20T04:07:02;4.70;81.90
80577;DHT22;69937;52.420;10.538;2023-12-20T04:12:03;4.70;81.70
80577;DHT22;69937;52.420;10.538;2023-12-20T04:17:06;4.70;81.60
80577;DHT22;69937;52.420;10.538;2023-12-20T04:22:07;4.70;81.40
80577;DHT22;69937;52.420;10.538;2023-12-20T04:27:08;4.70;81.30
80577;DHT22;69937;52.420;10.538;2023-12-20T04:32:08;4.60;81.20
80577;DHT22;69937;52.420;10.538;2023-12-20T04:37:09;4.60;81.00
80577;DHT22;69937;52.420;10.538;2023-12-20T04:42:10;4.50;80.90
80577;DHT22;69937;52.420;10.538;2023-12-20T04:47:10;4.50;80.70
80577;DHT22;69937;52.420;10.538;2023-12-20T04:52:11;4.50;80.50
80577;DHT22;69937;52.420;10.538;2023-12-20T04:57:11;4.50;80.20
80577;DHT22;69937;52.420;10.538;2023-12-20T05:02:12;4.60;80.20
80577;DHT22;69937;52.420;10.538;2023-12-20T05:07:12;4.70;79.90
80577;DHT22;69937;52.420;10.538;2023-12-20T05:12:13;4.70;79.40
80577;DHT22;69937;52.420;10.538;2023-12-20T05:17:13;4.70;79.20
80577;DHT22;69937;52.420;10.538;2023-12-20T05:22:14;4.90;79.00
80577;DHT22;69937;52.420;10.538;2023-12-20T05:27:15;5.00;78.70
80577;DHT22;69937;52.420;10.538;2023-12-20T05:32:16;5.00;78.60
80577;DHT22;69937;52.420;10.538;2023-12-20T05:37:16;5.10;78.40
80577;DHT22;69937;52.420;10.538;2023-12-20T05:42:17;5.10;78.20
80577;DHT22;69937;52.420;10.538;2023-12-20T05:47:18;5.20;78.00
80577;DHT22;69937;52.420;10.538;2023-12-20T05:52:18;5.30;77.80
80577;DHT22;69937;52.420;10.538;2023-12-20T05:57:19;5.30;77.70
80577;DHT22;69937;52.420;10.538;2023-12-20T06:02:19;5.30;78.00
80577;DHT22;69937;52.420;10.538;2023-12-20T06:07:20;5.30;77.80
80577;DHT22;69937;52.420;10.538;2023-12-20T06:12:21;5.40;77.50
80577;DHT22;69937;52.420;10.538;2023-12-20T06:17:21;5.40;77.40
80577;DHT22;69937;52.420;10.538;2023-12-20T06:22:22;5.50;77.40
80577;DHT22;69937;52.420;10.538;2023-12-20T06:27:22;5.50;77.60
80577;DHT22;69937;52.420;10.538;2023-12-20T06:32:23;5.50;77.30
80577;DHT22;69937;52.420;10.538;2023-12-20T06:37:24;5.50;77.20
80577;DHT22;69937;52.420;10.538;2023-12-20T06:42:25;5.50;77.20
80577;DHT22;69937;52.420;10.538;2023-12-20T06:47:25;5.50;77.40
80577;DHT22;69937;52.420;10.538;2023-12-20T06:52:26;5.50;77.30
80577;DHT22;69937;52.420;10.538;2023-12-20T06:57:27;5.50;77.10
80577;DHT22;69937;52.420;10.538;2023-12-20T07:02:28;5.60;76.90
80577;DHT22;69937;52.420;10.538;2023-12-20T07:07:30;5.60;76.60
80577;DHT22;69937;52.420;10.538;2023-12-20T07:12:31;5.60;76.50
80577;DHT22;69937;52.420;10.538;2023-12-20T07:17:32;5.60;76.20
80577;DHT22;69937;52.420;10.538;2023-12-20T07:22:33;5.60;75.50
80577;DHT22;69937;52.420;10.538;2023-12-20T07:27:34;5.70;75.90
80577;DHT22;69937;52.420;10.538;2023-12-20T07:32:34;5.70;75.70
80577;DHT22;69937;52.420;10.538;2023-12-20T07:37:35;5.70;75.70
80577;DHT22;69937;52.420;10.538;2023-12-20T07:42:36;5.70;75.80
80577;DHT22;69937;52.420;10.538;2023-12-20T07:47:36;5.70;76.00
80577;DHT22;69937;52.420;10.538;2023-12-20T07:52:37;5.70;75.90
80577;DHT22;69937;52.420;10.538;2023-12-20T07:57:37;5.70;75.50
80577;DHT22;69937;52.420;10.538;2023-12-20T08:02:38;5.70;75.10
80577;DHT22;69937;52.420;10.538;2023-12-20T08:07:38;5.70;74.80
80577;DHT22;69937;52.420;10.538;2023-12-20T08:12:39;5.70;74.80
80577;DHT22;69937;52.420;10.538;2023-12-20T08:17:40;5.70;74.70
80577;DHT22;69937;52.420;10.538;2023-12-20T08:22:40;5.70;75.00
80577;DHT22;69937;52.420;10.538;2023-12-20T08:27:41;5.60;75.00
80577;DHT22;69937;52.420;10.538;2023-12-20T08:32:41;5.60;75.40
80577;DHT22;69937;52.420;10.538;2023-12-20T08:37:42;5.60;75.40
80577;DHT22;69937;52.420;10.538;2023-12-20T08:42:42;5.70;75.00
80577;DHT22;69937;52.420;10.538;2023-12-20T08:47:43;5.70;75.30
80577;DHT22;69937;52.420;10.538;2023-12-20T08:52:45;5.70;75.00
80577;DHT22;69937;52.420;10.538;2023-12-20T08:57:45;5.80;74.80
80577;DHT22;69937;52.420;10.538;2023-12-20T09:02:46;5.80;75.00
80577;DHT22;69937;52.420;10.538;2023-12-20T09:07:46;5.80;74.90
80577;DHT22;69937;52.420;10.538;2023-12-20T09:12:50;5.80;75.40
80577;DHT22;69937;52.420;10.538;2023-12-20T09:17:52;5.80;75.20
80577;DHT22;69937;52.420;10.538;2023-12-20T09:22:53;5.90;75.00
80577;DHT22;69937;52.420;10.538;2023-12-20T09:27:53;5.90;74.70
80577;DHT22;69937;52.420;10.538;2023-12-20T09:32:54;6.00;75.30
80577;DHT22;69937;52.420;10.538;2023-12-20T09:37:55;6.00;75.10
80577;DHT22;69937;52.420;10.538;2023-12-20T09:43:04;6.00;75.10
80577;DHT22;69937;52.420;10.538;2023-12-20T09:48:10;6.10;74.70
80577;DHT22;69937;52.420;10.538;2023-12-20T09:53:15;6.10;74.80
80577;DHT22;69937;52.420;10.538;2023-12-20T09:58:15;6.00;74.60
80577;DHT22;69937;52.420;10.538;2023-12-20T10:03:16;6.10;74.70
80577;DHT22;69937;52.420;10.538;2023-12-20T10:08:17;6.10;74.70
80577;DHT22;69937;52.420;10.538;2023-12-20T10:13:21;6.10;75.00
80577;DHT22;69937;52.420;10.538;2023-12-20T10:18:22;6.10;74.70
80577;DHT22;69937;52.420;10.538;2023-12-20T10:23:22;6.10;74.80
80577;DHT22;69937;52.420;10.538;2023-12-20T10:28:23;6.20;74.50
80577;DHT22;69937;52.420;10.538;2023-12-20T10:33:28;6.30;74.30
80577;DHT22;69937;52.420;10.538;2023-12-20T10:38:29;6.40;74.00
80577;DHT22;69937;52.420;10.538;2023-12-20T10:43:32;6.40;74.90
80577;DHT22;69937;52.420;10.538;2023-12-20T10:48:34;6.30;75.50
80577;DHT22;69937;52.420;10.538;2023-12-20T10:53:35;6.20;75.80
80577;DHT22;69937;52.420;10.538;2023-12-20T10:58:38;6.30;74.80
80577;DHT22;69937;52.420;10.538;2023-12-20T11:03:50;6.30;74.70
80577;DHT22;69937;52.420;10.538;2023-12-20T11:14:22;6.50;74.00
80577;DHT22;69937;52.420;10.538;2023-12-20T11:19:24;6.60;74.50
80577;DHT22;69937;52.420;10.538;2023-12-20T11:24:25;6.60;74.20
80577;DHT22;69937;52.420;10.538;2023-12-20T11:29:52;6.60;74.20
80577;DHT22;69937;52.420;10.538;2023-12-20T11:40:00;6.60;74.30
80577;DHT22;69937;52.420;10.538;2023-12-20T11:45:02;6.60;74.50
80577;DHT22;69937;52.420;10.538;2023-12-20T11:50:04;6.60;74.30
80577;DHT22;69937;52.420;10.538;2023-12-20T11:55:05;6.60;74.70
80577;DHT22;69937;52.420;10.538;2023-12-20T12:00:06;6.60;75.40
80577;DHT22;69937;52.420;10.538;2023-12-20T12:05:07;6.50;75.30
80577;DHT22;69937;52.420;10.538;2023-12-20T12:10:08;6.40;76.20
80577;DHT22;69937;52.420;10.538;2023-12-20T12:15:09;6.30;76.30
80577;DHT22;69937;52.420;10.538;2023-12-20T12:20:10;5.80;74.30
80577;DHT22;69937;52.420;10.538;2023-12-20T12:25:12;5.40;76.90
80577;DHT22;69937;52.420;10.538;2023-12-20T12:30:15;5.30;78.00
80577;DHT22;69937;52.420;10.538;2023-12-20T12:35:16;5.20;78.20
80577;DHT22;69937;52.420;10.538;2023-12-20T12:40:17;5.30;78.60
80577;DHT22;69937;52.420;10.538;2023-12-20T12:45:17;5.30;79.20
80577;DHT22;69937;52.420;10.538;2023-12-20T12:50:18;5.50;79.60
80577;DHT22;69937;52.420;10.538;2023-12-20T12:55:19;5.60;79.20
80577;DHT22;69937;52.420;10.538;2023-12-20T13:00:20;5.60;78.60
80577;DHT22;69937;52.420;10.538;2023-12-20T13:05:20;5.60;77.60
80577;DHT22;69937;52.420;10.538;2023-12-20T13:10:21;5.80;77.20
80577;DHT22;69937;52.420;10.538;2023-12-20T13:15:21;6.00;76.50
80577;DHT22;69937;52.420;10.538;2023-12-20T13:20:22;6.80;73.40
80577;DHT22;69937;52.420;10.538;2023-12-20T13:25:22;7.30;71.30
80577;DHT22;69937;52.420;10.538;2023-12-20T13:30:24;7.20;71.50
80577;DHT22;69937;52.420;10.538;2023-12-20T13:35:24;7.00;71.40
80577;DHT22;69937;52.420;10.538;2023-12-20T13:40:25;7.20;70.20
80577;DHT22;69937;52.420;10.538;2023-12-20T13:45:25;7.50;68.90
80577;DHT22;69937;52.420;10.538;2023-12-20T13:50:26;7.00;69.70
80577;DHT22;69937;52.420;10.538;2023-12-20T13:55:27;6.70;70.50
80577;DHT22;69937;52.420;10.538;2023-12-20T14:00:28;6.40;71.10
80577;DHT22;69937;52.420;10.538;2023-12-20T14:05:29;6.10;70.90
80577;DHT22;69937;52.420;10.538;2023-12-20T14:10:30;5.90;71.00
80577;DHT22;69937;52.420;10.538;2023-12-20T14:15:30;5.70;71.60
80577;DHT22;69937;52.420;10.538;2023-12-20T14:20:36;5.60;72.10
80577;DHT22;69937;52.420;10.538;2023-12-20T14:25:37;5.50;71.60
80577;DHT22;69937;52.420;10.538;2023-12-20T14:30:37;5.40;71.90
80577;DHT22;69937;52.420;10.538;2023-12-20T14:35:38;5.30;72.00
80577;DHT22;69937;52.420;10.538;2023-12-20T14:40:39;5.30;72.30
80577;DHT22;69937;52.420;10.538;2023-12-20T14:45:39;5.20;72.30
80577;DHT22;69937;52.420;10.538;2023-12-20T14:50:40;5.30;72.60
80577;DHT22;69937;52.420;10.538;2023-12-20T14:55:43;5.20;72.60
80577;DHT22;69937;52.420;10.538;2023-12-20T15:00:44;5.20;73.00
80577;DHT22;69937;52.420;10.538;2023-12-20T15:05:45;5.20;73.00
80577;DHT22;69937;52.420;10.538;2023-12-20T15:10:48;5.20;73.20
80577;DHT22;69937;52.420;10.538;2023-12-20T15:15:48;5.30;73.10
80577;DHT22;69937;52.420;10.538;2023-12-20T15:20:49;5.30;73.50
80577;DHT22;69937;52.420;10.538;2023-12-20T15:25:50;5.30;73.50
80577;DHT22;69937;52.420;10.538;2023-12-20T15:30:51;5.30;73.60
80577;DHT22;69937;52.420;10.538;2023-12-20T15:35:51;5.30;73.90
80577;DHT22;69937;52.420;10.538;2023-12-20T15:40:52;5.40;73.90
80577;DHT22;69937;52.420;10.538;2023-12-20T15:45:52;5.50;74.30
80577;DHT22;69937;52.420;10.538;2023-12-20T15:50:53;5.50;74.40
80577;DHT22;69937;52.420;10.538;2023-12-20T15:55:53;5.50;74.40
80577;DHT22;69937;52.420;10.538;2023-12-20T16:00:54;5.50;74.30
80577;DHT22;69937;52.420;10.538;2023-12-20T16:05:54;5.50;73.90
80577;DHT22;69937;52.420;10.538;2023-12-20T16:10:55;5.60;74.10
80577;DHT22;69937;52.420;10.538;2023-12-20T16:15:55;5.60;73.30
80577;DHT22;69937;52.420;10.538;2023-12-20T16:20:56;5.50;72.10
80577;DHT22;69937;52.420;10.538;2023-12-20T16:25:57;5.50;71.70
80577;DHT22;69937;52.420;10.538;2023-12-20T16:30:58;5.50;72.10
80577;DHT22;69937;52.420;10.538;2023-12-20T16:35:58;5.50;73.00
80577;DHT22;69937;52.420;10.538;2023-12-20T16:40:59;5.30;73.50
80577;DHT22;69937;52.420;10.538;2023-12-20T16:46:00;5.10;73.80
80577;DHT22;69937;52.420;10.538;2023-12-20T16:51:01;5.00;74.50
80577;DHT22;69937;52.420;10.538;2023-12-20T16:56:02;4.90;74.30
80577;DHT22;69937;52.420;10.538;2023-12-20T17:01:02;4.70;75.40
80577;DHT22;69937;52.420;10.538;2023-12-20T17:06:03;4.60;74.60
80577;DHT22;69937;52.420;10.538;2023-12-20T17:11:03;4.50;75.40
80577;DHT22;69937;52.420;10.538;2023-12-20T17:16:04;4.50;75.50
80577;DHT22;69937;52.420;10.538;2023-12-20T17:21:05;4.40;75.60
80577;DHT22;69937;52.420;10.538;2023-12-20T17:26:06;4.40;76.70
80577;DHT22;69937;52.420;10.538;2023-12-20T17:31:07;4.30;76.70
80577;DHT22;69937;52.420;10.538;2023-12-20T17:36:07;4.30;77.40
80577;DHT22;69937;52.420;10.538;2023-12-20T17:41:08;4.30;77.80
80577;DHT22;69937;52.420;10.538;2023-12-20T17:46:09;4.20;78.20
80577;DHT22;69937;52.420;10.538;2023-12-20T17:51:09;4.20;78.30
80577;DHT22;69937;52.420;10.538;2023-12-20T17:56:10;4.20;78.90
80577;DHT22;69937;52.420;10.538;2023-12-20T18:01:11;4.20;78.90
80577;DHT22;69937;52.420;10.538;2023-12-20T18:06:14;4.10;79.40
80577;DHT22;69937;52.420;10.538;2023-12-20T18:11:15;4.10;79.90
80577;DHT22;69937;52.420;10.538;2023-12-20T18:16:16;4.10;80.40
80577;DHT22;69937;52.420;10.538;2023-12-20T18:21:17;4.10;80.70
80577;DHT22;69937;52.420;10.538;2023-12-20T18:26:18;4.10;81.20
80577;DHT22;69937;52.420;10.538;2023-12-20T18:31:18;4.10;81.30
80577;DHT22;69937;52.420;10.538;2023-12-20T18:36:19;4.10;81.70
80577;DHT22;69937;52.420;10.538;2023-12-20T18:41:19;4.10;81.90
80577;DHT22;69937;52.420;10.538;2023-12-20T18:46:20;4.10;82.10
80577;DHT22;69937;52.420;10.538;2023-12-20T18:51:21;4.20;82.10
80577;DHT22;69937;52.420;10.538;2023-12-20T18:56:21;4.20;82.10
80577;DHT22;69937;52.420;10.538;2023-12-20T19:01:22;4.20;80.70
80577;DHT22;69937;52.420;10.538;2023-12-20T19:06:22;4.30;80.50
80577;DHT22;69937;52.420;10.538;2023-12-20T19:11:23;4.40;80.60
80577;DHT22;69937;52.420;10.538;2023-12-20T19:16:23;4.40;81.00
80577;DHT22;69937;52.420;10.538;2023-12-20T19:21:24;4.40;81.70
80577;DHT22;69937;52.420;10.538;2023-12-20T19:26:24;4.40;81.90
80577;DHT22;69937;52.420;10.538;2023-12-20T19:31:25;4.40;82.20
80577;DHT22;69937;52.420;10.538;2023-12-20T19:36:25;4.30;82.30
80577;DHT22;69937;52.420;10.538;2023-12-20T19:41:26;4.30;82.50
80577;DHT22;69937;52.420;10.538;2023-12-20T19:46:27;4.30;82.60
80577;DHT22;69937;52.420;10.538;2023-12-20T19:51:27;4.30;82.80
80577;DHT22;69937;52.420;10.538;2023-12-20T19:56:28;4.30;82.90
80577;DHT22;69937;52.420;10.538;2023-12-20T20:01:29;4.30;82.90
80577;DHT22;69937;52.420;10.538;2023-12-20T20:06:29;4.30;83.00
80577;DHT22;69937;52.420;10.538;2023-12-20T20:11:30;4.30;83.30
80577;DHT22;69937;52.420;10.538;2023-12-20T20:16:30;4.30;83.40
80577;DHT22;69937;52.420;10.538;2023-12-20T20:21:31;4.30;83.70
80577;DHT22;69937;52.420;10.538;2023-12-20T20:26:31;4.30;84.00
80577;DHT22;69937;52.420;10.538;2023-12-20T20:31:32;4.30;84.20
80577;DHT22;69937;52.420;10.538;2023-12-20T20:36:34;4.40;84.50
80577;DHT22;69937;52.420;10.538;2023-12-20T20:41:35;4.40;84.70
80577;DHT22;69937;52.420;10.538;2023-12-20T20:46:35;4.40;85.00
80577;DHT22;69937;52.420;10.538;2023-12-20T20:51:36;4.50;85.10
80577;DHT22;69937;52.420;10.538;2023-12-20T20:56:37;4.50;85.30
80577;DHT22;69937;52.420;10.538;2023-12-20T21:01:37;4.70;85.40
80577;DHT22;69937;52.420;10.538;2023-12-20T21:06:38;4.70;85.50
80577;DHT22;69937;52.420;10.538;2023-12-20T21:11:39;4.80;85.50
80577;DHT22;69937;52.420;10.538;2023-12-20T21:16:40;4.90;85.50
80577;DHT22;69937;52.420;10.538;2023-12-20T21:21:40;5.00;85.50
80577;DHT22;69937;52.420;10.538;2023-12-20T21:26:41;5.10;85.30
80577;DHT22;69937;52.420;10.538;2023-12-20T21:31:42;5.20;85.10
80577;DHT22;69937;52.420;10.538;2023-12-20T21:36:43;5.30;85.10
80577;DHT22;69937;52.420;10.538;2023-12-20T21:41:43;5.40;84.90
80577;DHT22;69937;52.420;10.538;2023-12-20T21:46:44;5.50;84.70
80577;DHT22;69937;52.420;10.538;2023-12-20T21:51:44;5.70;84.30
80577;DHT22;69937;52.420;10.538;2023-12-20T21:56:45;5.80;84.10
80577;DHT22;69937;52.420;10.538;2023-12-20T22:01:45;5.90;84.20
80577;DHT22;69937;52.420;10.538;2023-12-20T22:06:46;6.00;84.00
80577;DHT22;69937;52.420;10.538;2023-12-20T22:11:46;6.10;84.00
80577;DHT22;69937;52.420;10.538;2023-12-20T22:16:47;6.10;83.90
80577;DHT22;69937;52.420;10.538;2023-12-20T22:21:47;6.20;83.60
80577;DHT22;69937;52.420;10.538;2023-12-20T22:26:48;6.30;83.40
80577;DHT22;69937;52.420;10.538;2023-12-20T22:31:48;6.30;83.20
80577;DHT22;69937;52.420;10.538;2023-12-20T22:36:49;6.40;82.90
80577;DHT22;69937;52.420;10.538;2023-12-20T22:41:50;6.50;82.60
80577;DHT22;69937;52.420;10.538;2023-12-20T22:46:51;6.60;82.50
80577;DHT22;69937;52.420;10.538;2023-12-20T22:51:51;6.60;82.50
80577;DHT22;69937;52.420;10.538;2023-12-20T22:56:52;6.60;82.60
80577;DHT22;69937;52.420;10.538;2023-12-20T23:01:54;6.70;82.80
80577;DHT22;69937;52.420;10.538;2023-12-20T23:06:55;6.70;82.60
80577;DHT22;69937;52.420;10.538;2023-12-20T23:11:55;6.80;82.60
80577;DHT22;69937;52.420;10.538;2023-12-20T23:16:56;6.80;82.80
80577;DHT22;69937;52.420;10.538;2023-12-20T23:21:56;6.80;82.80
80577;DHT22;69937;52.420;10.538;2023-12-20T23:26:57;6.90;83.00
80577;DHT22;69937;52.420;10.538;2023-12-20T23:31:57;6.90;82.90
80577;DHT22;69937;52.420;10.538;2023-12-20T23:36:58;6.90;82.80
80577;DHT22;69937;52.420;10.538;2023-12-20T23:41:58;7.00;82.70
80577;DHT22;69937;52.420;10.538;2023-12-20T23:46:59;7.00;82.80
80577;DHT22;69937;52.420;10.538;2023-12-20T23:51:59;7.00;82.90
80577;DHT22;69937;52.420;10.538;2023-12-20T23:57:00;7.00;82.90
